Country
Station

 

Weather  for  Safford, Safford Municipal Airport  -  United States    United States

  
23 °C (73 °F)
    
 
 

Current METAR for Safford, Safford Municipal Airport is :

KSAD 192351Z AUTO VRB05KT 10SM CLR 23/M03 A2997 RMK AO2 SLP119 T02281028 10239 20183 56018

 

This is a report for Safford, Safford Municipal Airport - United States.
 
The report was made a moment ago, at 23:51 UTC .
The wind was blowing at a speed of 2.6 meters per second (5.8 miles per hour) from variable directions.
 
The temperature was 23 °C (73 °F), with a dew-point at -3 °C (27 °F).
The temperature felt like 24 °C (75 °F).
 
The atmospheric pressure was 1015 hPa (29.97 inHg).
The relative humidity was 17.4%.
 
The sky was clear.
 
The overall visibility was 16.1 kilometers (10.0 miles).
 

 
 
 
 

Country :   A   B   C   D   E   F   G   H   I   J   K   L   M   N   O   P   Q   R   S   T   U   V   W   Y   Z

 

Site Info  |  Disclaimer  |  Credits  |  Privacy
Contact us  |  Add to favorites
© 2013-2019 METARs - All rights reserved